createdAt,value
2017-09-15T00:00:53.926Z,78.20
2017-09-15T00:03:21.513Z,78.20
2017-09-15T00:05:49.858Z,78.50
2017-09-15T00:08:17.408Z,78.50
2017-09-15T00:10:44.982Z,78.80
2017-09-15T00:13:12.545Z,79.00
2017-09-15T00:15:40.102Z,78.70
2017-09-15T00:18:07.679Z,78.80
2017-09-15T00:20:35.238Z,79.10
2017-09-15T00:23:02.799Z,79.40
2017-09-15T00:25:30.395Z,79.90
2017-09-15T00:27:58.718Z,79.90
2017-09-15T00:30:26.285Z,79.90
2017-09-15T00:32:53.871Z,80.00
2017-09-15T00:35:21.438Z,80.20
2017-09-15T00:37:49.773Z,80.20
2017-09-15T00:40:17.313Z,80.20
2017-09-15T00:42:44.882Z,80.40
2017-09-15T00:45:12.460Z,80.70
2017-09-15T00:47:40.041Z,81.20
2017-09-15T00:50:07.618Z,81.10
2017-09-15T00:52:35.983Z,81.10
2017-09-15T00:55:03.532Z,81.10
2017-09-15T00:57:31.077Z,81.70
2017-09-15T00:59:58.705Z,81.50
2017-09-15T01:02:26.272Z,81.60
2017-09-15T01:04:53.837Z,81.30
2017-09-15T01:07:21.410Z,81.60
2017-09-15T01:09:48.978Z,82.30
2017-09-15T01:12:16.544Z,82.00
2017-09-15T01:14:44.100Z,82.30
2017-09-15T01:17:11.677Z,82.60
2017-09-15T01:19:39.246Z,82.40
2017-09-15T01:22:06.808Z,82.60
2017-09-15T01:24:34.379Z,82.70
2017-09-15T01:27:01.951Z,82.70
2017-09-15T01:29:30.298Z,82.80
2017-09-15T01:31:57.871Z,82.70
2017-09-15T01:34:25.426Z,82.70
2017-09-15T01:36:52.975Z,82.90
2017-09-15T01:39:20.553Z,82.70
2017-09-15T01:41:48.102Z,83.00
2017-09-15T01:44:15.669Z,83.00
2017-09-15T01:46:43.239Z,83.10
2017-09-15T01:49:11.590Z,83.00
2017-09-15T01:51:39.151Z,83.00
2017-09-15T01:54:07.512Z,83.00
2017-09-15T01:56:35.070Z,83.00
2017-09-15T01:59:02.663Z,82.80
2017-09-15T02:01:30.225Z,82.90
2017-09-15T02:03:57.818Z,82.40
2017-09-15T02:06:25.378Z,82.50
2017-09-15T02:08:52.925Z,82.50
2017-09-15T02:11:21.230Z,82.20
2017-09-15T02:13:48.791Z,82.10
2017-09-15T02:16:16.360Z,82.10
2017-09-15T02:18:43.909Z,82.10
2017-09-15T02:21:11.766Z,82.30
2017-09-15T02:23:39.330Z,82.30
2017-09-15T02:26:06.901Z,82.40
2017-09-15T02:28:34.466Z,82.70
2017-09-15T02:31:02.806Z,82.30
2017-09-15T02:33:31.164Z,82.40
2017-09-15T02:35:58.748Z,82.30
2017-09-15T02:38:27.109Z,82.80
2017-09-15T02:40:54.661Z,82.80
2017-09-15T02:43:22.232Z,83.10
2017-09-15T02:45:50.561Z,83.30
2017-09-15T02:48:18.131Z,83.20
2017-09-15T02:50:45.706Z,83.40
2017-09-15T02:53:13.302Z,83.70
2017-09-15T02:55:49.384Z,83.50
2017-09-15T02:58:24.028Z,83.70
2017-09-15T03:00:51.615Z,83.70
2017-09-15T03:03:34.251Z,83.80
2017-09-15T03:06:02.571Z,83.90
2017-09-15T03:08:30.889Z,83.90
2017-09-15T03:10:58.483Z,83.80
2017-09-15T03:13:26.061Z,83.60
2017-09-15T03:15:53.626Z,83.90
2017-09-15T03:18:21.969Z,84.40
2017-09-15T03:20:49.509Z,84.40
2017-09-15T03:23:17.069Z,84.30
2017-09-15T03:25:44.639Z,84.20
2017-09-15T03:28:12.218Z,84.90
2017-09-15T03:30:39.780Z,85.50
2017-09-15T03:33:07.322Z,85.60
2017-09-15T03:35:34.877Z,85.60
2017-09-15T03:38:02.409Z,85.80
2017-09-15T03:40:29.950Z,86.20
2017-09-15T03:42:58.278Z,86.90
2017-09-15T03:45:25.848Z,86.90
2017-09-15T03:47:53.427Z,86.70
2017-09-15T03:50:20.991Z,86.70
2017-09-15T03:52:49.193Z,86.80
2017-09-15T03:55:17.514Z,87.30
2017-09-15T03:57:45.076Z,87.20
2017-09-15T04:00:12.633Z,87.00
2017-09-15T04:02:40.190Z,87.00
2017-09-15T04:05:08.687Z,86.80
2017-09-15T04:07:36.266Z,86.90
2017-09-15T04:10:03.815Z,86.80
2017-09-15T04:12:31.357Z,86.50
2017-09-15T04:14:58.917Z,86.20
2017-09-15T04:17:26.461Z,86.60
2017-09-15T04:19:54.033Z,85.80
2017-09-15T04:22:21.593Z,86.00
2017-09-15T04:24:49.187Z,85.90
2017-09-15T04:27:16.749Z,85.60
2017-09-15T04:29:44.323Z,85.70
2017-09-15T04:32:12.662Z,85.30
2017-09-15T04:34:40.235Z,85.20
2017-09-15T04:37:07.781Z,85.30
2017-09-15T04:39:35.344Z,85.30
2017-09-15T04:42:02.922Z,85.50
2017-09-15T04:44:30.472Z,86.30
2017-09-15T04:46:58.051Z,87.00
2017-09-15T04:49:25.615Z,86.30
2017-09-15T04:51:54.078Z,86.40
2017-09-15T04:54:21.636Z,86.20
2017-09-15T04:56:49.192Z,85.90
2017-09-15T04:59:16.731Z,85.60
2017-09-15T05:01:44.274Z,85.50
2017-09-15T05:04:11.826Z,85.40
2017-09-15T05:06:39.405Z,85.50
2017-09-15T05:09:07.009Z,85.40
2017-09-15T05:11:34.560Z,85.40
2017-09-15T05:14:02.180Z,85.10
2017-09-15T05:16:29.746Z,85.40
2017-09-15T05:18:57.326Z,85.40
2017-09-15T05:21:24.906Z,85.90
2017-09-15T05:23:52.465Z,87.20
2017-09-15T05:26:20.012Z,86.10
2017-09-15T05:28:47.581Z,86.30
2017-09-15T05:31:15.160Z,86.20
2017-09-15T05:33:43.506Z,85.90
2017-09-15T05:36:11.093Z,85.90
2017-09-15T05:38:38.638Z,85.50
2017-09-15T05:41:06.235Z,85.40
2017-09-15T05:43:34.557Z,85.30
2017-09-15T05:46:02.125Z,85.30
2017-09-15T05:48:29.692Z,85.50
2017-09-15T05:50:57.242Z,85.30
2017-09-15T05:53:24.809Z,85.50
2017-09-15T05:55:52.349Z,85.40
2017-09-15T05:58:19.898Z,85.00
2017-09-15T06:00:47.489Z,85.00
2017-09-15T06:03:15.036Z,85.20
2017-09-15T06:05:42.575Z,84.90
2017-09-15T06:08:10.153Z,85.80
2017-09-15T06:10:37.733Z,85.90
2017-09-15T06:13:05.294Z,85.70
2017-09-15T06:15:32.862Z,85.90
2017-09-15T06:18:00.430Z,86.00
2017-09-15T06:20:28.020Z,85.70
2017-09-15T06:22:56.366Z,85.00
2017-09-15T06:25:23.971Z,85.00
2017-09-15T06:27:52.302Z,84.60
2017-09-15T06:30:19.873Z,84.60
2017-09-15T06:32:47.449Z,84.30
2017-09-15T06:35:15.773Z,83.60
2017-09-15T06:37:43.350Z,83.60
2017-09-15T06:40:10.965Z,83.00
2017-09-15T06:42:38.516Z,81.40
2017-09-15T06:45:09.245Z,80.90
2017-09-15T06:47:36.822Z,80.80
2017-09-15T06:50:04.382Z,78.80
2017-09-15T06:52:31.942Z,78.10
2017-09-15T06:54:59.515Z,77.50
2017-09-15T06:57:27.083Z,76.90
2017-09-15T06:59:54.643Z,77.10
2017-09-15T07:02:22.219Z,76.30
2017-09-15T07:04:49.782Z,76.90
2017-09-15T07:07:17.362Z,75.70
2017-09-15T07:09:44.957Z,75.30
2017-09-15T07:12:13.276Z,74.00
2017-09-15T07:14:40.812Z,74.00
2017-09-15T07:17:08.376Z,73.40
2017-09-15T07:19:35.917Z,73.60
2017-09-15T07:22:03.472Z,72.20
2017-09-15T07:24:31.018Z,72.10
2017-09-15T07:26:59.311Z,71.30
2017-09-15T07:29:26.850Z,71.40
2017-09-15T07:31:55.180Z,72.60
2017-09-15T07:34:22.773Z,72.60
2017-09-15T07:36:50.324Z,72.50
2017-09-15T07:39:17.933Z,71.80
2017-09-15T07:41:45.486Z,71.70
2017-09-15T07:44:13.019Z,71.80
2017-09-15T07:46:40.590Z,71.90
2017-09-15T07:49:08.896Z,69.30
2017-09-15T07:51:36.455Z,69.30
2017-09-15T07:54:04.012Z,69.40
2017-09-15T07:56:31.624Z,72.50
2017-09-15T07:58:59.170Z,69.50
2017-09-15T08:01:26.743Z,69.30
2017-09-15T08:03:54.306Z,69.60
2017-09-15T08:06:21.854Z,68.20
2017-09-15T08:08:49.406Z,67.60
2017-09-15T08:11:16.952Z,66.60
2017-09-15T08:13:44.523Z,66.70
2017-09-15T08:16:12.051Z,64.40
2017-09-15T08:18:39.602Z,65.90
2017-09-15T08:21:07.913Z,65.10
2017-09-15T08:23:35.447Z,65.10
2017-09-15T08:26:02.996Z,65.20
2017-09-15T08:28:31.314Z,64.90
2017-09-15T08:30:58.902Z,64.90
2017-09-15T08:33:26.501Z,64.40
2017-09-15T08:35:54.049Z,63.70
2017-09-15T08:38:22.357Z,64.40
2017-09-15T08:40:49.915Z,64.40
2017-09-15T08:43:17.509Z,64.40
2017-09-15T08:45:45.079Z,62.50
2017-09-15T08:48:12.636Z,63.00
2017-09-15T08:50:40.244Z,62.70
2017-09-15T08:53:07.791Z,62.90
2017-09-15T08:55:36.141Z,62.60
2017-09-15T08:58:03.706Z,62.60
2017-09-15T09:00:31.269Z,62.30
2017-09-15T09:02:58.813Z,61.60
2017-09-15T09:05:26.400Z,61.50
2017-09-15T09:07:54.751Z,61.60
2017-09-15T09:10:22.332Z,61.60
2017-09-15T09:12:50.638Z,62.60
2017-09-15T09:15:18.213Z,62.50
2017-09-15T09:17:45.763Z,61.30
2017-09-15T09:20:13.329Z,61.90
2017-09-15T09:22:40.893Z,61.40
2017-09-15T09:25:08.465Z,60.70
2017-09-15T09:27:36.023Z,60.70
2017-09-15T09:30:03.577Z,60.80
2017-09-15T09:32:31.154Z,60.80
2017-09-15T09:34:58.702Z,61.20
2017-09-15T09:37:26.263Z,59.80
2017-09-15T09:39:53.825Z,59.90
2017-09-15T09:42:21.393Z,60.60
2017-09-15T09:44:48.936Z,60.60
2017-09-15T09:47:16.480Z,59.50
2017-09-15T09:49:44.034Z,60.10
2017-09-15T09:52:11.582Z,61.50
2017-09-15T09:54:39.902Z,59.80
2017-09-15T09:57:07.494Z,59.80
2017-09-15T09:59:35.058Z,59.80
2017-09-15T10:02:02.615Z,59.20
2017-09-15T10:04:30.178Z,58.60
2017-09-15T10:06:57.734Z,57.70
2017-09-15T10:09:25.303Z,59.60
2017-09-15T10:11:53.650Z,58.00
2017-09-15T10:14:21.187Z,58.00
2017-09-15T10:16:48.762Z,57.70
2017-09-15T10:19:16.309Z,57.40
2017-09-15T10:21:43.914Z,57.20
2017-09-15T10:24:11.501Z,57.00
2017-09-15T10:26:39.841Z,58.20
2017-09-15T10:29:07.387Z,58.20
2017-09-15T10:31:34.961Z,56.90
2017-09-15T10:34:02.535Z,56.00
2017-09-15T10:36:30.274Z,53.90
2017-09-15T10:38:58.156Z,54.20
2017-09-15T10:41:25.693Z,53.70
2017-09-15T10:43:53.275Z,54.70
2017-09-15T10:46:20.855Z,55.90
2017-09-15T10:48:49.182Z,54.70
2017-09-15T10:51:16.769Z,54.60
2017-09-15T10:53:44.337Z,55.40
2017-09-15T10:56:11.900Z,55.40
2017-09-15T10:58:45.161Z,55.40
2017-09-15T11:01:14.759Z,54.60
2017-09-15T11:03:42.324Z,54.60
2017-09-15T11:06:10.009Z,55.60
2017-09-15T11:08:38.882Z,52.80
2017-09-15T11:11:08.145Z,52.10
2017-09-15T11:13:36.571Z,53.00
2017-09-15T11:16:04.290Z,52.90
2017-09-15T11:18:32.598Z,54.30
2017-09-15T11:21:00.163Z,54.40
2017-09-15T11:23:27.713Z,52.80
2017-09-15T11:25:55.262Z,52.30
2017-09-15T11:28:22.837Z,53.60
2017-09-15T11:30:50.417Z,53.70
2017-09-15T11:33:17.967Z,54.30
2017-09-15T11:35:45.609Z,54.70
2017-09-15T11:38:13.237Z,55.60
2017-09-15T11:40:41.559Z,53.10
2017-09-15T11:43:09.118Z,53.10
2017-09-15T11:45:38.350Z,53.50
2017-09-15T11:48:06.014Z,53.30
2017-09-15T11:50:34.337Z,53.40
2017-09-15T11:53:01.881Z,53.50
2017-09-15T11:55:30.184Z,53.50
2017-09-15T11:57:57.756Z,53.50
2017-09-15T12:00:25.360Z,53.90
2017-09-15T12:02:53.703Z,52.60
2017-09-15T12:05:21.253Z,52.60
2017-09-15T12:07:48.817Z,54.10
2017-09-15T12:10:16.373Z,52.80
2017-09-15T12:12:44.293Z,52.70
2017-09-15T12:15:12.636Z,52.60
2017-09-15T12:17:40.246Z,52.50
2017-09-15T12:20:08.550Z,51.10
2017-09-15T12:22:36.103Z,51.20
2017-09-15T12:25:03.677Z,51.60
2017-09-15T12:27:31.228Z,53.10
2017-09-15T12:29:58.759Z,54.80
2017-09-15T12:32:27.092Z,57.00
2017-09-15T12:34:54.639Z,57.00
2017-09-15T12:37:22.206Z,55.00
2017-09-15T12:39:49.743Z,55.90
2017-09-15T12:42:17.313Z,56.50
2017-09-15T12:44:44.888Z,54.40
2017-09-15T12:47:12.458Z,52.50
2017-09-15T12:49:40.019Z,52.40
2017-09-15T12:52:07.573Z,53.50
2017-09-15T12:54:35.143Z,52.70
2017-09-15T12:57:02.709Z,54.40
2017-09-15T12:59:30.282Z,54.30
2017-09-15T13:01:58.597Z,55.10
2017-09-15T13:04:26.204Z,55.10
2017-09-15T13:06:53.774Z,56.10
2017-09-15T13:09:21.343Z,55.40
2017-09-15T13:11:49.683Z,56.60
2017-09-15T13:14:17.235Z,56.60
2017-09-15T13:16:44.797Z,57.10
2017-09-15T13:19:12.335Z,57.00
2017-09-15T13:21:39.916Z,56.80
2017-09-15T13:24:07.478Z,57.50
2017-09-15T13:26:36.699Z,56.20
2017-09-15T13:29:04.364Z,56.20
2017-09-15T13:31:31.938Z,56.70
2017-09-15T13:34:00.253Z,57.70
2017-09-15T13:36:27.827Z,57.70
2017-09-15T13:38:55.378Z,57.60
2017-09-15T13:41:22.932Z,57.70
2017-09-15T13:43:50.509Z,60.60
2017-09-15T13:46:18.057Z,61.10
2017-09-15T13:48:45.700Z,63.00
2017-09-15T13:51:13.244Z,65.20
2017-09-15T13:53:41.587Z,65.50
2017-09-15T13:56:09.136Z,65.50
2017-09-15T13:58:36.748Z,65.30
2017-09-15T14:01:04.421Z,65.30
2017-09-15T14:03:31.973Z,63.60
2017-09-15T14:06:00.528Z,63.80
2017-09-15T14:08:29.347Z,63.60
2017-09-15T14:10:56.898Z,63.80
2017-09-15T14:13:24.445Z,64.90
2017-09-15T14:15:52.022Z,63.80
2017-09-15T14:18:19.603Z,64.40
2017-09-15T14:20:47.229Z,64.30
2017-09-15T14:23:14.796Z,64.90
2017-09-15T14:25:42.396Z,64.10
2017-09-15T14:28:10.079Z,64.50
2017-09-15T14:30:38.454Z,64.10
2017-09-15T14:33:06.800Z,60.00
2017-09-15T14:35:34.745Z,60.00
2017-09-15T14:38:02.518Z,57.60
2017-09-15T14:40:30.072Z,56.30
2017-09-15T14:42:57.635Z,56.50
2017-09-15T14:45:25.211Z,55.30
2017-09-15T14:47:52.788Z,53.40
2017-09-15T14:50:20.364Z,53.10
2017-09-15T14:52:47.912Z,52.10
2017-09-15T14:58:03.342Z,50.20
2017-09-15T15:00:33.103Z,49.40
2017-09-15T15:03:00.675Z,48.20
2017-09-15T15:05:28.272Z,49.10
2017-09-15T15:07:55.888Z,49.10
2017-09-15T15:10:23.482Z,47.70
2017-09-15T15:12:51.035Z,46.20
2017-09-15T15:15:18.657Z,47.10
2017-09-15T15:17:46.986Z,47.10
2017-09-15T15:20:14.551Z,47.10
2017-09-15T15:22:42.161Z,47.10
2017-09-15T15:25:09.780Z,47.00
2017-09-15T15:27:37.388Z,46.20
2017-09-15T15:30:05.018Z,45.40
2017-09-15T15:32:32.613Z,46.90
2017-09-15T15:35:00.960Z,48.00
2017-09-15T15:37:28.531Z,47.90
2017-09-15T15:39:56.109Z,49.20
2017-09-15T15:42:24.433Z,50.90
2017-09-15T15:44:52.059Z,50.90
2017-09-15T15:47:20.423Z,55.10
2017-09-15T15:49:48.788Z,56.80
2017-09-15T15:52:16.365Z,56.70
2017-09-15T15:54:45.310Z,58.00
2017-09-15T15:57:12.958Z,57.90
2017-09-15T15:59:40.580Z,57.90
2017-09-15T16:02:08.157Z,59.80
2017-09-15T16:04:36.490Z,59.10
2017-09-15T16:07:04.068Z,59.10
2017-09-15T16:09:31.609Z,58.70
2017-09-15T16:11:59.193Z,59.20
2017-09-15T16:14:26.757Z,59.10
2017-09-15T16:16:54.355Z,60.60
2017-09-15T16:19:22.690Z,62.40
2017-09-15T16:21:50.259Z,62.50
2017-09-15T16:24:17.810Z,61.00
2017-09-15T16:26:45.392Z,61.40
2017-09-15T16:29:14.850Z,63.80
2017-09-15T16:31:42.433Z,63.60
2017-09-15T16:34:10.007Z,66.10
2017-09-15T16:36:37.594Z,67.40
2017-09-15T16:39:11.592Z,66.00
2017-09-15T16:41:45.491Z,67.60
2017-09-15T16:44:18.733Z,67.60
2017-09-15T16:46:51.860Z,70.00
2017-09-15T16:49:25.034Z,72.10
2017-09-15T16:51:52.799Z,74.10
2017-09-15T16:54:20.374Z,71.80
2017-09-15T16:56:47.954Z,73.40
2017-09-15T16:59:15.784Z,70.10
2017-09-15T17:01:43.409Z,70.70
2017-09-15T17:04:10.977Z,70.50
2017-09-15T17:06:38.826Z,69.20
2017-09-15T17:09:07.231Z,63.20
2017-09-15T17:11:34.797Z,63.20
2017-09-15T17:14:02.541Z,67.20
2017-09-15T17:16:31.515Z,69.90
2017-09-15T17:19:00.788Z,71.00
2017-09-15T17:21:28.856Z,70.80
2017-09-15T17:23:57.701Z,69.40
2017-09-15T17:26:25.290Z,69.40
2017-09-15T17:28:53.607Z,70.40
2017-09-15T17:31:22.599Z,72.20
2017-09-15T17:33:50.985Z,73.30
2017-09-15T17:36:18.564Z,73.20
2017-09-15T17:38:48.603Z,72.70
2017-09-15T17:41:16.262Z,72.80
2017-09-15T17:43:43.849Z,71.80
2017-09-15T17:46:11.502Z,72.10
2017-09-15T17:48:39.150Z,71.70
2017-09-15T17:51:06.736Z,71.90
2017-09-15T17:53:34.462Z,73.00
2017-09-15T17:56:02.182Z,73.80
2017-09-15T17:58:29.837Z,74.40
2017-09-15T18:00:57.414Z,77.20
2017-09-15T18:03:25.063Z,77.50
2017-09-15T18:05:53.951Z,79.90
2017-09-15T18:08:21.746Z,80.70
2017-09-15T18:10:50.263Z,81.10
2017-09-15T18:13:17.856Z,81.10
2017-09-15T18:15:53.306Z,80.90
2017-09-15T18:18:22.234Z,81.30
2017-09-15T18:20:50.867Z,82.00
2017-09-15T18:23:18.463Z,82.10
2017-09-15T18:25:46.038Z,82.20
2017-09-15T18:28:14.358Z,83.10
2017-09-15T18:30:43.126Z,83.10
2017-09-15T18:33:11.161Z,83.10
2017-09-15T18:35:38.766Z,83.20
2017-09-15T18:38:06.372Z,82.60
2017-09-15T18:40:35.611Z,83.10
2017-09-15T18:43:03.162Z,82.90
2017-09-15T18:45:32.556Z,82.50
2017-09-15T18:48:01.094Z,82.30
2017-09-15T18:50:28.689Z,82.30
2017-09-15T18:52:56.250Z,82.30
2017-09-15T18:55:23.832Z,81.90
2017-09-15T18:57:54.921Z,81.90
2017-09-15T19:00:22.803Z,81.90
2017-09-15T19:02:50.398Z,82.00
2017-09-15T19:05:18.709Z,81.90
2017-09-15T19:07:46.487Z,82.00
2017-09-15T19:10:14.337Z,82.10
2017-09-15T19:12:42.090Z,81.90
2017-09-15T19:15:09.704Z,81.90
2017-09-15T19:17:37.369Z,81.90
2017-09-15T19:20:05.011Z,81.80
2017-09-15T19:22:32.576Z,81.70
2017-09-15T19:25:00.808Z,82.00
2017-09-15T19:27:32.168Z,82.00
2017-09-15T19:30:03.512Z,82.20
2017-09-15T19:32:31.873Z,82.40
2017-09-15T19:35:01.191Z,82.40
2017-09-15T19:37:31.218Z,82.30
2017-09-15T19:40:01.518Z,81.90
2017-09-15T19:42:30.769Z,81.80
2017-09-15T19:45:01.216Z,81.60
2017-09-15T19:47:31.863Z,82.30
2017-09-15T19:50:00.935Z,82.90
2017-09-15T19:52:31.989Z,82.60
2017-09-15T19:55:02.563Z,83.00
2017-09-15T19:57:32.238Z,83.60
2017-09-15T20:00:01.086Z,83.60
2017-09-15T20:02:30.710Z,83.30
2017-09-15T20:05:00.709Z,83.20
2017-09-15T20:07:31.055Z,83.10
2017-09-15T20:10:01.129Z,83.10
2017-09-15T20:12:31.118Z,82.70
2017-09-15T20:15:02.559Z,82.60
2017-09-15T20:17:31.248Z,82.70
2017-09-15T20:19:59.991Z,83.00
2017-09-15T20:22:27.753Z,83.40
2017-09-15T20:24:55.379Z,83.20
2017-09-15T20:27:22.926Z,83.00
2017-09-15T20:29:50.603Z,82.70
2017-09-15T20:32:18.267Z,82.30
2017-09-15T20:34:45.878Z,82.40
2017-09-15T20:37:13.469Z,82.30
2017-09-15T20:39:41.231Z,81.90
2017-09-15T20:42:08.886Z,81.80
2017-09-15T20:44:36.504Z,82.00
2017-09-15T20:47:04.074Z,82.30
2017-09-15T20:49:31.749Z,82.70
2017-09-15T20:51:59.470Z,83.10
2017-09-15T20:54:27.110Z,83.60
2017-09-15T20:56:54.723Z,83.60
2017-09-15T20:59:22.329Z,83.50
2017-09-15T21:01:49.975Z,83.20
2017-09-15T21:04:17.644Z,83.70
2017-09-15T21:06:45.334Z,83.50
2017-09-15T21:09:14.854Z,82.70
2017-09-15T21:11:43.238Z,82.70
2017-09-15T21:14:12.417Z,83.20
2017-09-15T21:16:39.994Z,83.20
2017-09-15T21:19:08.334Z,83.20
2017-09-15T21:21:35.891Z,83.20
2017-09-15T21:27:08.187Z,82.90
2017-09-15T21:29:35.838Z,82.80
2017-09-15T21:32:03.473Z,82.40
2017-09-15T21:34:31.061Z,82.30
2017-09-15T21:37:05.213Z,83.00
2017-09-15T21:39:33.581Z,82.30
2017-09-15T21:42:01.139Z,83.30
2017-09-15T21:44:28.737Z,83.00
2017-09-15T21:46:57.068Z,83.10
2017-09-15T21:49:24.646Z,83.10
2017-09-15T21:51:52.282Z,83.10
2017-09-15T21:54:19.830Z,83.10
2017-09-15T21:56:47.434Z,82.90
2017-09-15T21:59:14.982Z,83.00
2017-09-15T22:01:42.545Z,84.50
2017-09-15T22:04:15.702Z,84.50
2017-09-15T22:06:43.256Z,84.50
2017-09-15T22:09:10.842Z,84.00
2017-09-15T22:11:38.405Z,83.80
2017-09-15T22:14:05.987Z,83.60
2017-09-15T22:16:33.539Z,83.60
2017-09-15T22:19:01.088Z,83.70
2017-09-15T22:21:28.667Z,84.10
2017-09-15T22:23:56.217Z,84.40
2017-09-15T22:26:23.798Z,84.00
2017-09-15T22:28:52.116Z,83.80
2017-09-15T22:31:19.699Z,83.80
2017-09-15T22:33:47.265Z,83.60
2017-09-15T22:36:17.857Z,83.70
2017-09-15T22:38:45.437Z,83.90
2017-09-15T22:41:13.019Z,84.00
2017-09-15T22:43:40.566Z,83.90
2017-09-15T22:46:08.133Z,84.10
2017-09-15T22:48:35.696Z,84.20
2017-09-15T22:51:03.289Z,84.20
2017-09-15T22:53:31.633Z,83.80
2017-09-15T22:55:59.193Z,83.80
2017-09-15T22:58:26.756Z,84.40
2017-09-15T23:00:54.321Z,84.60
2017-09-15T23:03:21.900Z,84.40
2017-09-15T23:05:50.233Z,84.20
2017-09-15T23:08:17.837Z,84.20
2017-09-15T23:10:46.170Z,84.00
2017-09-15T23:13:13.774Z,84.00
2017-09-15T23:15:41.341Z,84.20
2017-09-15T23:18:09.653Z,85.00
2017-09-15T23:20:37.516Z,85.00
2017-09-15T23:23:05.076Z,84.70
2017-09-15T23:25:32.665Z,84.50
2017-09-15T23:28:00.288Z,84.50
2017-09-15T23:30:27.902Z,85.00
2017-09-15T23:32:55.459Z,85.50
2017-09-15T23:35:23.034Z,85.30
2017-09-15T23:37:50.581Z,85.00
2017-09-15T23:40:18.162Z,84.90
2017-09-15T23:42:46.525Z,85.50
2017-09-15T23:45:14.090Z,84.70
2017-09-15T23:47:41.640Z,84.60
2017-09-15T23:50:09.239Z,84.90
2017-09-15T23:52:36.811Z,85.00
2017-09-15T23:55:04.369Z,84.90
2017-09-15T23:57:31.940Z,84.80
2017-09-15T23:59:59.537Z,84.60
